HVN7544 VVPB-VVNB
Flight info
| Callsign | HVN7544 |
|---|---|
| Flight time | 0h 55m |
| Altitude | 35000 |
| Route | NIVEN1B NIVEN Q2 BISON |
| Aircraft | A321/M-SDE3FGHIRWY/LB1 |
Departure
| Time | 2026-05-09 07:05 |
|---|---|
| Airport | Phu Bai International Airport (VVPB) |
Arrival
| Time | 2026-05-09 08:00 |
|---|---|
| Airport | Noi Bai International Airport (VVNB) |
| Time | Latitude | Longitude | Altitude | Speed | Heading |
|---|---|---|---|---|---|
| 2026-05-09 06:21 | 16.39737 | 107.70339 | 48 ft | 0 kts | 183° |
| 2026-05-09 06:27 | 16.39757 | 107.70340 | 48 ft | 4 kts | 183° |
| 2026-05-09 06:27 | 16.39784 | 107.70342 | 48 ft | 4 kts | 183° |
| 2026-05-09 06:28 | 16.39806 | 107.70344 | 48 ft | 4 kts | 203° |
| 2026-05-09 06:28 | 16.39824 | 107.70361 | 47 ft | 4 kts | 250° |
| 2026-05-09 06:28 | 16.39829 | 107.70388 | 48 ft | 4 kts | 271° |
| 2026-05-09 06:28 | 16.39829 | 107.70398 | 46 ft | 0 kts | 272° |
| 2026-05-09 06:33 | 16.39829 | 107.70396 | 47 ft | 1 kts | 272° |
| 2026-05-09 06:33 | 16.39829 | 107.70391 | 47 ft | 2 kts | 273° |
| 2026-05-09 06:34 | 16.39831 | 107.70342 | 48 ft | 5 kts | 273° |
| 2026-05-09 06:34 | 16.39834 | 107.70299 | 48 ft | 7 kts | 273° |
| 2026-05-09 06:34 | 16.39854 | 107.70251 | 48 ft | 8 kts | 324° |
| 2026-05-09 06:34 | 16.39901 | 107.70213 | 48 ft | 9 kts | 300° |
| 2026-05-09 06:35 | 16.39911 | 107.70141 | 48 ft | 11 kts | 274° |
| 2026-05-09 06:35 | 16.39916 | 107.70058 | 49 ft | 12 kts | 273° |
| 2026-05-09 06:35 | 16.39921 | 107.69964 | 49 ft | 14 kts | 273° |
| 2026-05-09 06:35 | 16.39960 | 107.69872 | 47 ft | 15 kts | 317° |
| 2026-05-09 06:36 | 16.40045 | 107.69808 | 50 ft | 15 kts | 326° |
| 2026-05-09 06:36 | 16.40098 | 107.69720 | 49 ft | 15 kts | 277° |
| 2026-05-09 06:36 | 16.40104 | 107.69605 | 50 ft | 17 kts | 274° |
| 2026-05-09 06:36 | 16.40110 | 107.69473 | 49 ft | 19 kts | 272° |
| 2026-05-09 06:37 | 16.40118 | 107.69335 | 49 ft | 20 kts | 273° |
| 2026-05-09 06:37 | 16.40107 | 107.69216 | 46 ft | 16 kts | 241° |
| 2026-05-09 06:37 | 16.40075 | 107.69154 | 48 ft | 5 kts | 264° |
| 2026-05-09 06:37 | 16.40076 | 107.69148 | 49 ft | 0 kts | 276° |
| 2026-05-09 07:02 | 16.40076 | 107.69143 | 48 ft | 2 kts | 276° |
| 2026-05-09 07:03 | 16.40085 | 107.69124 | 46 ft | 4 kts | 310° |
| 2026-05-09 07:03 | 16.40116 | 107.69122 | 47 ft | 5 kts | 22° |
| 2026-05-09 07:03 | 16.40126 | 107.69151 | 47 ft | 4 kts | 84° |
| 2026-05-09 07:03 | 16.40126 | 107.69158 | 48 ft | 0 kts | 89° |
| 2026-05-09 07:04 | 16.40126 | 107.69165 | 48 ft | 6 kts | 91° |
| 2026-05-09 07:04 | 16.40115 | 107.69433 | 47 ft | 76 kts | 93° |
| 2026-05-09 07:05 | 16.40071 | 107.70236 | 49 ft | 143 kts | 93° |
| 2026-05-09 07:05 | 16.39985 | 107.71382 | 479 ft | 157 kts | 94° |
| 2026-05-09 07:05 | 16.39884 | 107.72494 | 1289 ft | 154 kts | 91° |
| 2026-05-09 07:05 | 16.39829 | 107.73605 | 1967 ft | 154 kts | 88° |
| 2026-05-09 07:06 | 16.39777 | 107.74786 | 2275 ft | 175 kts | 91° |
| 2026-05-09 07:06 | 16.39720 | 107.76134 | 2483 ft | 197 kts | 91° |
| 2026-05-09 07:06 | 16.39654 | 107.77633 | 2642 ft | 219 kts | 91° |
| 2026-05-09 07:06 | 16.39577 | 107.79313 | 2785 ft | 246 kts | 92° |
| 2026-05-09 07:07 | 16.39487 | 107.81165 | 3197 ft | 263 kts | 92° |
| 2026-05-09 07:07 | 16.39384 | 107.83098 | 3807 ft | 271 kts | 92° |
| 2026-05-09 07:07 | 16.39452 | 107.85054 | 4323 ft | 272 kts | 73° |
| 2026-05-09 07:07 | 16.40432 | 107.86701 | 5091 ft | 271 kts | 40° |
| 2026-05-09 07:08 | 16.42140 | 107.87501 | 5795 ft | 275 kts | 7° |
| 2026-05-09 07:08 | 16.44060 | 107.87441 | 6508 ft | 279 kts | 353° |
| 2026-05-09 07:08 | 16.45984 | 107.87070 | 7209 ft | 283 kts | 349° |
| 2026-05-09 07:08 | 16.47898 | 107.86674 | 7875 ft | 286 kts | 351° |
| 2026-05-09 07:09 | 16.49873 | 107.86348 | 8515 ft | 288 kts | 353° |
| 2026-05-09 07:09 | 16.50802 | 107.86230 | 8794 ft | 289 kts | 354° |
| 2026-05-09 07:09 | 16.51662 | 107.86136 | 9031 ft | 292 kts | 355° |
| 2026-05-09 07:09 | 16.53694 | 107.85969 | 9622 ft | 295 kts | 358° |
| 2026-05-09 07:10 | 16.55757 | 107.85857 | 10190 ft | 300 kts | 359° |
| 2026-05-09 07:10 | 16.57916 | 107.85769 | 10338 ft | 321 kts | 358° |
| 2026-05-09 07:10 | 16.60183 | 107.85414 | 10470 ft | 340 kts | 346° |
| 2026-05-09 07:10 | 16.62451 | 107.84525 | 10600 ft | 358 kts | 333° |
| 2026-05-09 07:11 | 16.64568 | 107.83061 | 10808 ft | 372 kts | 320° |
| 2026-05-09 07:11 | 16.66363 | 107.81095 | 11246 ft | 377 kts | 309° |
| 2026-05-09 07:11 | 16.68064 | 107.78956 | 11779 ft | 380 kts | 310° |
| 2026-05-09 07:11 | 16.69769 | 107.76834 | 12289 ft | 383 kts | 310° |
| 2026-05-09 07:12 | 16.71468 | 107.74730 | 12797 ft | 386 kts | 310° |
| 2026-05-09 07:12 | 16.73228 | 107.72551 | 13300 ft | 389 kts | 310° |
| 2026-05-09 07:12 | 16.74973 | 107.70386 | 13790 ft | 391 kts | 309° |
| 2026-05-09 07:12 | 16.76731 | 107.68202 | 14265 ft | 394 kts | 309° |
| 2026-05-09 07:13 | 16.78498 | 107.66004 | 14728 ft | 397 kts | 309° |
| 2026-05-09 07:13 | 16.80276 | 107.63786 | 15169 ft | 400 kts | 309° |
| 2026-05-09 07:13 | 16.82065 | 107.61550 | 15629 ft | 403 kts | 309° |
| 2026-05-09 07:13 | 16.83869 | 107.59299 | 16083 ft | 405 kts | 309° |
| 2026-05-09 07:14 | 16.85681 | 107.57039 | 16533 ft | 408 kts | 309° |
| 2026-05-09 07:14 | 16.87508 | 107.54758 | 16956 ft | 410 kts | 309° |
| 2026-05-09 07:14 | 16.89342 | 107.52470 | 17380 ft | 412 kts | 309° |
| 2026-05-09 07:14 | 16.91187 | 107.50163 | 17764 ft | 415 kts | 309° |
| 2026-05-09 07:15 | 16.93042 | 107.47843 | 18161 ft | 417 kts | 309° |
| 2026-05-09 07:15 | 16.94908 | 107.45511 | 18542 ft | 420 kts | 309° |
| 2026-05-09 07:15 | 16.96782 | 107.43164 | 18929 ft | 421 kts | 309° |
| 2026-05-09 07:15 | 16.98665 | 107.40806 | 19290 ft | 424 kts | 309° |
| 2026-05-09 07:16 | 17.00596 | 107.38475 | 19640 ft | 426 kts | 314° |
| 2026-05-09 07:16 | 17.02843 | 107.36453 | 19983 ft | 428 kts | 324° |
| 2026-05-09 07:16 | 17.05415 | 107.34859 | 20326 ft | 431 kts | 334° |
| 2026-05-09 07:16 | 17.08125 | 107.33510 | 20666 ft | 433 kts | 334° |
| 2026-05-09 07:17 | 17.10844 | 107.32150 | 21003 ft | 434 kts | 334° |
| 2026-05-09 07:17 | 17.13535 | 107.30794 | 21327 ft | 436 kts | 334° |
| 2026-05-09 07:17 | 17.16274 | 107.29410 | 21658 ft | 438 kts | 334° |
| 2026-05-09 07:17 | 17.19055 | 107.28006 | 21982 ft | 440 kts | 334° |
| 2026-05-09 07:18 | 17.21781 | 107.26633 | 22296 ft | 441 kts | 334° |
| 2026-05-09 07:18 | 17.24550 | 107.25237 | 22605 ft | 443 kts | 334° |
| 2026-05-09 07:18 | 17.27331 | 107.23831 | 22894 ft | 445 kts | 334° |
| 2026-05-09 07:18 | 17.30123 | 107.22418 | 23193 ft | 446 kts | 334° |
| 2026-05-09 07:19 | 17.32923 | 107.21005 | 23468 ft | 448 kts | 334° |
| 2026-05-09 07:19 | 17.35738 | 107.19584 | 23735 ft | 450 kts | 334° |
| 2026-05-09 07:19 | 17.38563 | 107.18158 | 24001 ft | 451 kts | 334° |
| 2026-05-09 07:19 | 17.41396 | 107.16729 | 24254 ft | 454 kts | 334° |
| 2026-05-09 07:20 | 17.44285 | 107.15271 | 24512 ft | 455 kts | 334° |
| 2026-05-09 07:20 | 17.47106 | 107.13847 | 24769 ft | 457 kts | 334° |
| 2026-05-09 07:20 | 17.49972 | 107.12400 | 24995 ft | 459 kts | 334° |
| 2026-05-09 07:20 | 17.52856 | 107.10941 | 25237 ft | 461 kts | 334° |
| 2026-05-09 07:21 | 17.55747 | 107.09479 | 25494 ft | 463 kts | 334° |
| 2026-05-09 07:21 | 17.58653 | 107.08009 | 25728 ft | 464 kts | 334° |
| 2026-05-09 07:21 | 17.61570 | 107.06531 | 25966 ft | 466 kts | 334° |
| 2026-05-09 07:21 | 17.64492 | 107.05050 | 26205 ft | 468 kts | 334° |
| 2026-05-09 07:22 | 17.67432 | 107.03559 | 26443 ft | 469 kts | 334° |
| 2026-05-09 07:22 | 17.70418 | 107.02046 | 26659 ft | 471 kts | 334° |
| 2026-05-09 07:22 | 17.73336 | 107.00566 | 26878 ft | 473 kts | 334° |
| 2026-05-09 07:22 | 17.76338 | 106.99043 | 27093 ft | 475 kts | 334° |
| 2026-05-09 07:23 | 17.79321 | 106.97530 | 27303 ft | 476 kts | 334° |
| 2026-05-09 07:23 | 17.82303 | 106.96018 | 27504 ft | 477 kts | 334° |
| 2026-05-09 07:23 | 17.85302 | 106.94497 | 27696 ft | 479 kts | 334° |
| 2026-05-09 07:23 | 17.88259 | 106.92995 | 27873 ft | 480 kts | 334° |
| 2026-05-09 07:24 | 17.91273 | 106.91463 | 28033 ft | 482 kts | 334° |
| 2026-05-09 07:24 | 17.94297 | 106.89934 | 28201 ft | 483 kts | 334° |
| 2026-05-09 07:24 | 17.97330 | 106.88405 | 28354 ft | 484 kts | 334° |
| 2026-05-09 07:24 | 18.00372 | 106.86875 | 28495 ft | 486 kts | 334° |
| 2026-05-09 07:25 | 18.03421 | 106.85341 | 28679 ft | 486 kts | 334° |
| 2026-05-09 07:25 | 18.06465 | 106.83809 | 28907 ft | 485 kts | 334° |
| 2026-05-09 07:25 | 18.09502 | 106.82282 | 29112 ft | 484 kts | 333° |
| 2026-05-09 07:25 | 18.12541 | 106.80752 | 29314 ft | 484 kts | 333° |
| 2026-05-09 07:26 | 18.15575 | 106.79217 | 29515 ft | 484 kts | 333° |
| 2026-05-09 07:26 | 18.18606 | 106.77679 | 29722 ft | 483 kts | 333° |
| 2026-05-09 07:26 | 18.21635 | 106.76143 | 29916 ft | 483 kts | 333° |
| 2026-05-09 07:26 | 18.24661 | 106.74611 | 30120 ft | 483 kts | 333° |
| 2026-05-09 07:27 | 18.27685 | 106.73083 | 30329 ft | 482 kts | 333° |
| 2026-05-09 07:27 | 18.30710 | 106.71557 | 30552 ft | 481 kts | 333° |
| 2026-05-09 07:27 | 18.33723 | 106.70037 | 30779 ft | 480 kts | 333° |
| 2026-05-09 07:27 | 18.36728 | 106.68520 | 31013 ft | 479 kts | 333° |
| 2026-05-09 07:28 | 18.39727 | 106.67001 | 31252 ft | 478 kts | 333° |
| 2026-05-09 07:28 | 18.42717 | 106.65483 | 31493 ft | 476 kts | 333° |
| 2026-05-09 07:28 | 18.45695 | 106.63970 | 31737 ft | 475 kts | 333° |
| 2026-05-09 07:28 | 18.48667 | 106.62462 | 31978 ft | 474 kts | 333° |
| 2026-05-09 07:29 | 18.51632 | 106.60956 | 32222 ft | 473 kts | 333° |
| 2026-05-09 07:29 | 18.54590 | 106.59454 | 32451 ft | 471 kts | 333° |
| 2026-05-09 07:29 | 18.57544 | 106.57955 | 32686 ft | 470 kts | 333° |
| 2026-05-09 07:29 | 18.60489 | 106.56466 | 32923 ft | 469 kts | 333° |
| 2026-05-09 07:30 | 18.63428 | 106.54986 | 33164 ft | 467 kts | 334° |
| 2026-05-09 07:30 | 18.66356 | 106.53510 | 33388 ft | 466 kts | 334° |
| 2026-05-09 07:30 | 18.69284 | 106.52035 | 33626 ft | 465 kts | 334° |
| 2026-05-09 07:30 | 18.72202 | 106.50570 | 33867 ft | 464 kts | 334° |
| 2026-05-09 07:31 | 18.75107 | 106.49108 | 34114 ft | 462 kts | 334° |
| 2026-05-09 07:31 | 18.78002 | 106.47647 | 34342 ft | 461 kts | 333° |
| 2026-05-09 07:31 | 18.80892 | 106.46185 | 34578 ft | 460 kts | 333° |
| 2026-05-09 07:31 | 18.83776 | 106.44725 | 34791 ft | 459 kts | 333° |
| 2026-05-09 07:32 | 18.86653 | 106.43266 | 34932 ft | 458 kts | 333° |
| 2026-05-09 07:32 | 18.89527 | 106.41805 | 34961 ft | 458 kts | 333° |
| 2026-05-09 07:32 | 18.95254 | 106.38907 | 34962 ft | 456 kts | 333° |
| 2026-05-09 07:33 | 19.03865 | 106.34594 | 34971 ft | 456 kts | 333° |
| 2026-05-09 07:34 | 19.08623 | 106.32195 | 34971 ft | 456 kts | 333° |
| 2026-05-09 07:34 | 19.14348 | 106.29307 | 34974 ft | 456 kts | 333° |
| 2026-05-09 07:35 | 19.20074 | 106.26412 | 34980 ft | 456 kts | 333° |
| 2026-05-09 07:35 | 19.25808 | 106.23520 | 34988 ft | 457 kts | 333° |
| 2026-05-09 07:36 | 19.31539 | 106.20624 | 34996 ft | 457 kts | 333° |
| 2026-05-09 07:36 | 19.37274 | 106.17717 | 35001 ft | 457 kts | 333° |
| 2026-05-09 07:37 | 19.43007 | 106.14808 | 35006 ft | 457 kts | 333° |
| 2026-05-09 07:37 | 19.48741 | 106.11896 | 35003 ft | 457 kts | 333° |
| 2026-05-09 07:38 | 19.54473 | 106.08995 | 35009 ft | 457 kts | 333° |
| 2026-05-09 07:38 | 19.60218 | 106.06115 | 35006 ft | 457 kts | 333° |
| 2026-05-09 07:39 | 19.65962 | 106.03243 | 35003 ft | 456 kts | 333° |
| 2026-05-09 07:39 | 19.71700 | 106.00364 | 34440 ft | 456 kts | 333° |
| 2026-05-09 07:39 | 19.74576 | 105.98916 | 33572 ft | 458 kts | 333° |
| 2026-05-09 07:40 | 19.77461 | 105.97462 | 32668 ft | 461 kts | 333° |
| 2026-05-09 07:40 | 19.80365 | 105.95998 | 31757 ft | 464 kts | 333° |
| 2026-05-09 07:40 | 19.83292 | 105.94520 | 30849 ft | 467 kts | 333° |
| 2026-05-09 07:40 | 19.86241 | 105.93034 | 29809 ft | 472 kts | 333° |
| 2026-05-09 07:41 | 19.89233 | 105.91529 | 28756 ft | 478 kts | 333° |
| 2026-05-09 07:41 | 19.92251 | 105.90013 | 27703 ft | 481 kts | 333° |
| 2026-05-09 07:41 | 19.95293 | 105.88482 | 26463 ft | 487 kts | 333° |
| 2026-05-09 07:41 | 19.98301 | 105.86969 | 25825 ft | 480 kts | 333° |
| 2026-05-09 07:42 | 20.01299 | 105.85457 | 25072 ft | 475 kts | 333° |
| 2026-05-09 07:42 | 20.04268 | 105.83955 | 24317 ft | 470 kts | 333° |
| 2026-05-09 07:42 | 20.07199 | 105.82471 | 23568 ft | 464 kts | 334° |
| 2026-05-09 07:42 | 20.10098 | 105.81004 | 22849 ft | 458 kts | 334° |
| 2026-05-09 07:43 | 20.12958 | 105.79557 | 22137 ft | 452 kts | 333° |
| 2026-05-09 07:43 | 20.15784 | 105.78128 | 21411 ft | 447 kts | 333° |
| 2026-05-09 07:43 | 20.18573 | 105.76717 | 20706 ft | 441 kts | 333° |
| 2026-05-09 07:43 | 20.21325 | 105.75322 | 20012 ft | 435 kts | 333° |
| 2026-05-09 07:44 | 20.24039 | 105.73947 | 19350 ft | 429 kts | 333° |
| 2026-05-09 07:44 | 20.26716 | 105.72594 | 18700 ft | 423 kts | 333° |
| 2026-05-09 07:44 | 20.29353 | 105.71263 | 18095 ft | 417 kts | 333° |
| 2026-05-09 07:44 | 20.31955 | 105.69945 | 17493 ft | 411 kts | 333° |
| 2026-05-09 07:45 | 20.34518 | 105.68644 | 16924 ft | 405 kts | 333° |
| 2026-05-09 07:45 | 20.37041 | 105.67360 | 16378 ft | 399 kts | 333° |
| 2026-05-09 07:45 | 20.39521 | 105.66096 | 15836 ft | 392 kts | 333° |
| 2026-05-09 07:45 | 20.42009 | 105.64964 | 15276 ft | 387 kts | 340° |
| 2026-05-09 07:46 | 20.44625 | 105.64292 | 14703 ft | 390 kts | 351° |
| 2026-05-09 07:46 | 20.47381 | 105.64108 | 14034 ft | 402 kts | 359° |
| 2026-05-09 07:46 | 20.50184 | 105.64101 | 13381 ft | 402 kts | 359° |
| 2026-05-09 07:46 | 20.52963 | 105.64084 | 12731 ft | 397 kts | 359° |
| 2026-05-09 07:47 | 20.55716 | 105.64059 | 12090 ft | 393 kts | 359° |
| 2026-05-09 07:47 | 20.58438 | 105.64030 | 11428 ft | 389 kts | 359° |
| 2026-05-09 07:47 | 20.61133 | 105.64000 | 10858 ft | 383 kts | 359° |
| 2026-05-09 07:47 | 20.63726 | 105.63973 | 10716 ft | 363 kts | 359° |
| 2026-05-09 07:48 | 20.66191 | 105.63951 | 10591 ft | 345 kts | 359° |
| 2026-05-09 07:48 | 20.68530 | 105.63934 | 10462 ft | 329 kts | 359° |
| 2026-05-09 07:48 | 20.70765 | 105.63919 | 10335 ft | 314 kts | 359° |
| 2026-05-09 07:48 | 20.72919 | 105.63903 | 10082 ft | 306 kts | 359° |
| 2026-05-09 07:49 | 20.75023 | 105.63885 | 9876 ft | 300 kts | 359° |
| 2026-05-09 07:49 | 20.77113 | 105.63866 | 9755 ft | 300 kts | 359° |
| 2026-05-09 07:49 | 20.79203 | 105.63844 | 9630 ft | 300 kts | 359° |
| 2026-05-09 07:49 | 20.81290 | 105.63824 | 9498 ft | 299 kts | 359° |
| 2026-05-09 07:50 | 20.83372 | 105.63805 | 9247 ft | 298 kts | 360° |
| 2026-05-09 07:50 | 20.85436 | 105.63787 | 8964 ft | 296 kts | 360° |
| 2026-05-09 07:50 | 20.87491 | 105.63768 | 8674 ft | 294 kts | 0° |
| 2026-05-09 07:50 | 20.89534 | 105.63748 | 8388 ft | 294 kts | 0° |
| 2026-05-09 07:51 | 20.91572 | 105.63728 | 8093 ft | 292 kts | 0° |
| 2026-05-09 07:51 | 20.93594 | 105.63706 | 7805 ft | 290 kts | 0° |
| 2026-05-09 07:51 | 20.95602 | 105.63688 | 7510 ft | 287 kts | 0° |
| 2026-05-09 07:51 | 20.97600 | 105.63676 | 7232 ft | 286 kts | 0° |
| 2026-05-09 07:52 | 20.99585 | 105.63662 | 6948 ft | 285 kts | 0° |
| 2026-05-09 07:52 | 21.01563 | 105.63634 | 6669 ft | 283 kts | 357° |
| 2026-05-09 07:52 | 21.03491 | 105.63270 | 6388 ft | 281 kts | 344° |
| 2026-05-09 07:52 | 21.05344 | 105.62682 | 6099 ft | 274 kts | 345° |
| 2026-05-09 07:53 | 21.07158 | 105.62106 | 5834 ft | 270 kts | 344° |
| 2026-05-09 07:53 | 21.08946 | 105.61540 | 5565 ft | 265 kts | 345° |
| 2026-05-09 07:53 | 21.10693 | 105.60983 | 5301 ft | 260 kts | 345° |
| 2026-05-09 07:53 | 21.12406 | 105.60438 | 5068 ft | 252 kts | 345° |
| 2026-05-09 07:54 | 21.14053 | 105.59916 | 4801 ft | 241 kts | 345° |
| 2026-05-09 07:54 | 21.15631 | 105.59415 | 4560 ft | 232 kts | 345° |
| 2026-05-09 07:54 | 21.17164 | 105.59016 | 4329 ft | 223 kts | 356° |
| 2026-05-09 07:54 | 21.18666 | 105.59147 | 4112 ft | 213 kts | 17° |
| 2026-05-09 07:55 | 21.20036 | 105.59675 | 3895 ft | 207 kts | 21° |
| 2026-05-09 07:55 | 21.21376 | 105.60215 | 3685 ft | 205 kts | 21° |
| 2026-05-09 07:55 | 21.22712 | 105.60753 | 3470 ft | 205 kts | 21° |
| 2026-05-09 07:55 | 21.24026 | 105.61287 | 3267 ft | 197 kts | 24° |
| 2026-05-09 07:56 | 21.25138 | 105.62043 | 3065 ft | 184 kts | 42° |
| 2026-05-09 07:56 | 21.25913 | 105.63079 | 2881 ft | 175 kts | 59° |
| 2026-05-09 07:56 | 21.26335 | 105.64269 | 2663 ft | 169 kts | 77° |
| 2026-05-09 07:56 | 21.26404 | 105.65513 | 2449 ft | 167 kts | 94° |
| 2026-05-09 07:57 | 21.26148 | 105.66691 | 2352 ft | 159 kts | 105° |
| 2026-05-09 07:57 | 21.25823 | 105.67814 | 2217 ft | 155 kts | 105° |
| 2026-05-09 07:57 | 21.25509 | 105.68911 | 2026 ft | 151 kts | 105° |
| 2026-05-09 07:57 | 21.25205 | 105.69968 | 1832 ft | 147 kts | 105° |
| 2026-05-09 07:58 | 21.24906 | 105.71008 | 1639 ft | 144 kts | 104° |
| 2026-05-09 07:58 | 21.24608 | 105.72038 | 1452 ft | 145 kts | 106° |
| 2026-05-09 07:58 | 21.24311 | 105.73069 | 1268 ft | 145 kts | 106° |
| 2026-05-09 07:58 | 21.24014 | 105.74100 | 1068 ft | 144 kts | 106° |
| 2026-05-09 07:59 | 21.23717 | 105.75128 | 875 ft | 144 kts | 106° |
| 2026-05-09 07:59 | 21.23422 | 105.76153 | 683 ft | 144 kts | 106° |
| 2026-05-09 07:59 | 21.23127 | 105.77172 | 489 ft | 143 kts | 106° |
| 2026-05-09 07:59 | 21.22832 | 105.78191 | 309 ft | 143 kts | 106° |
| 2026-05-09 08:00 | 21.22539 | 105.79207 | 135 ft | 143 kts | 107° |
| 2026-05-09 08:00 | 21.22256 | 105.80197 | 50 ft | 127 kts | 107° |
| 2026-05-09 08:00 | 21.22038 | 105.80955 | 50 ft | 82 kts | 107° |
| 2026-05-09 08:00 | 21.21919 | 105.81367 | 45 ft | 41 kts | 108° |
| 2026-05-09 08:01 | 21.21865 | 105.81551 | 47 ft | 17 kts | 108° |
| 2026-05-09 08:01 | 21.21819 | 105.81631 | 45 ft | 11 kts | 152° |
| 2026-05-09 08:01 | 21.21756 | 105.81632 | 47 ft | 7 kts | 193° |
| 2026-05-09 08:01 | 21.21722 | 105.81622 | 49 ft | 1 kts | 196° |
| 2026-05-09 08:02 | 21.21721 | 105.81621 | 49 ft | 0 kts | 196° |
| 2026-05-09 08:02 | 21.21719 | 105.81621 | 49 ft | 1 kts | 196° |
| 2026-05-09 08:02 | 21.21685 | 105.81610 | 47 ft | 8 kts | 197° |
| 2026-05-09 08:02 | 21.21628 | 105.81592 | 50 ft | 9 kts | 197° |
| 2026-05-09 08:03 | 21.21565 | 105.81570 | 49 ft | 10 kts | 196° |
| 2026-05-09 08:03 | 21.21548 | 105.81565 | 51 ft | 0 kts | 196° |
| 2026-05-09 08:04 | 21.21540 | 105.81563 | 51 ft | 5 kts | 196° |
| 2026-05-09 08:04 | 21.21495 | 105.81540 | 49 ft | 9 kts | 223° |
| 2026-05-09 08:04 | 21.21483 | 105.81471 | 50 ft | 11 kts | 279° |
| 2026-05-09 08:04 | 21.21506 | 105.81383 | 49 ft | 13 kts | 287° |
| 2026-05-09 08:05 | 21.21534 | 105.81286 | 45 ft | 8 kts | 287° |
| 2026-05-09 08:05 | 21.21552 | 105.81222 | 49 ft | 10 kts | 287° |
| 2026-05-09 08:05 | 21.21574 | 105.81143 | 49 ft | 12 kts | 287° |
| 2026-05-09 08:05 | 21.21601 | 105.81047 | 49 ft | 14 kts | 287° |
| 2026-05-09 08:06 | 21.21633 | 105.80937 | 48 ft | 16 kts | 287° |
| 2026-05-09 08:06 | 21.21667 | 105.80820 | 49 ft | 12 kts | 287° |
| 2026-05-09 08:06 | 21.21690 | 105.80739 | 49 ft | 9 kts | 286° |
| 2026-05-09 08:06 | 21.21660 | 105.80683 | 49 ft | 10 kts | 205° |
| 2026-05-09 08:07 | 21.21586 | 105.80659 | 49 ft | 12 kts | 196° |
| 2026-05-09 08:07 | 21.21504 | 105.80634 | 49 ft | 7 kts | 196° |
| 2026-05-09 08:07 | 21.21468 | 105.80613 | 47 ft | 7 kts | 233° |
| 2026-05-09 08:07 | 21.21474 | 105.80564 | 49 ft | 5 kts | 296° |
| 2026-05-09 08:08 | 21.21487 | 105.80537 | 49 ft | 2 kts | 295° |
| 2026-05-09 08:08 | 21.21488 | 105.80533 | 49 ft | 0 kts | 295° |